createdAt,value
2023-12-23T00:01:58.552Z,1.77
2023-12-23T00:04:25.786Z,3.43
2023-12-23T00:06:52.846Z,2.20
2023-12-23T00:09:19.945Z,1.33
2023-12-23T00:11:47.076Z,1.57
2023-12-23T00:14:14.322Z,1.27
2023-12-23T00:16:41.435Z,1.30
2023-12-23T00:19:10.385Z,1.33
2023-12-23T00:21:37.815Z,1.23
2023-12-23T00:24:05.060Z,1.20
2023-12-23T00:26:32.153Z,1.00
2023-12-23T00:28:59.266Z,1.40
2023-12-23T00:31:26.405Z,1.70
2023-12-23T00:33:53.619Z,1.60
2023-12-23T00:36:20.766Z,1.43
2023-12-23T00:38:47.896Z,2.00
2023-12-23T00:41:15.108Z,1.63
2023-12-23T00:43:42.258Z,1.63
2023-12-23T00:46:09.337Z,1.57
2023-12-23T00:48:36.577Z,1.90
2023-12-23T00:51:03.715Z,2.80
2023-12-23T00:53:30.796Z,2.07
2023-12-23T00:55:57.927Z,3.10
2023-12-23T00:58:25.006Z,2.23
2023-12-23T01:00:52.091Z,2.63
2023-12-23T01:03:19.200Z,1.90
2023-12-23T01:05:46.284Z,2.37
2023-12-23T01:08:13.344Z,2.27
2023-12-23T01:10:40.446Z,2.37
2023-12-23T01:13:07.555Z,2.50
2023-12-23T01:15:34.648Z,1.90
2023-12-23T01:18:01.875Z,2.03
2023-12-23T01:20:29.048Z,2.80
2023-12-23T01:22:56.248Z,2.00
2023-12-23T01:25:24.036Z,4.40
2023-12-23T01:27:51.455Z,3.50
2023-12-23T01:30:18.856Z,2.80
2023-12-23T01:32:46.076Z,2.73
2023-12-23T01:35:13.271Z,3.67
2023-12-23T01:37:40.545Z,3.17
2023-12-23T01:40:07.860Z,3.07
2023-12-23T01:42:34.913Z,3.17
2023-12-23T01:45:01.965Z,2.60
2023-12-23T01:47:29.024Z,2.67
2023-12-23T01:49:57.386Z,3.10
2023-12-23T01:52:24.770Z,2.30
2023-12-23T01:54:51.902Z,2.67
2023-12-23T01:57:18.949Z,2.97
2023-12-23T01:59:46.030Z,2.97
2023-12-23T02:02:13.767Z,2.37
2023-12-23T02:04:40.942Z,4.70
2023-12-23T02:07:08.021Z,2.50
2023-12-23T02:09:35.073Z,2.33
2023-12-23T02:12:21.216Z,2.63
2023-12-23T02:14:58.857Z,2.30
2023-12-23T02:17:26.215Z,3.23
2023-12-23T02:19:53.380Z,2.20
2023-12-23T02:22:20.450Z,2.47
2023-12-23T02:24:47.500Z,2.70
2023-12-23T02:27:16.037Z,2.47
2023-12-23T02:29:43.183Z,2.43
2023-12-23T02:32:10.464Z,2.10
2023-12-23T02:34:37.579Z,3.10
2023-12-23T02:37:04.714Z,2.30
2023-12-23T02:39:31.769Z,2.07
2023-12-23T02:41:58.921Z,2.20
2023-12-23T02:44:25.958Z,2.70
2023-12-23T02:46:53.122Z,2.83
2023-12-23T02:49:20.245Z,2.27
2023-12-23T02:51:47.365Z,2.67
2023-12-23T02:54:14.466Z,2.03
2023-12-23T02:56:41.525Z,2.30
2023-12-23T02:59:08.624Z,3.43
2023-12-23T03:01:35.810Z,2.30
2023-12-23T03:04:02.887Z,2.20
2023-12-23T03:06:29.933Z,2.07
2023-12-23T03:08:57.011Z,2.43
2023-12-23T03:11:24.104Z,2.10
2023-12-23T03:13:52.936Z,1.80
2023-12-23T03:16:20.241Z,1.90
2023-12-23T03:18:47.743Z,2.07
2023-12-23T03:21:14.988Z,1.30
2023-12-23T03:23:42.326Z,1.43
2023-12-23T03:26:09.496Z,1.40
2023-12-23T03:28:36.731Z,1.00
2023-12-23T03:31:04.036Z,1.30
2023-12-23T03:33:31.211Z,1.13
2023-12-23T03:36:01.296Z,1.30
2023-12-23T03:38:28.355Z,1.50
2023-12-23T03:40:55.486Z,1.60
2023-12-23T03:43:22.598Z,3.13
2023-12-23T03:45:49.664Z,2.20
2023-12-23T03:48:16.805Z,2.27
2023-12-23T03:50:44.285Z,3.27
2023-12-23T03:53:11.407Z,2.07
2023-12-23T03:55:40.322Z,2.53
2023-12-23T03:58:07.510Z,2.63
2023-12-23T04:00:34.899Z,2.00
2023-12-23T04:03:02.071Z,2.13
2023-12-23T04:05:29.208Z,2.30
2023-12-23T04:07:56.311Z,4.50
2023-12-23T04:10:23.455Z,3.20
2023-12-23T04:12:50.784Z,2.10
2023-12-23T04:15:18.033Z,2.60
2023-12-23T04:17:45.154Z,2.80
2023-12-23T04:20:12.695Z,2.10
2023-12-23T04:22:39.848Z,2.03
2023-12-23T04:25:07.090Z,2.20
2023-12-23T04:27:34.347Z,3.00
2023-12-23T04:30:01.417Z,2.87
2023-12-23T04:32:28.612Z,3.30
2023-12-23T04:34:56.623Z,1.93
2023-12-23T04:37:23.844Z,1.93
2023-12-23T04:39:50.905Z,2.50
2023-12-23T04:42:17.978Z,2.17
2023-12-23T04:44:45.042Z,2.47
2023-12-23T04:47:12.171Z,1.97
2023-12-23T04:49:39.838Z,1.70
2023-12-23T04:52:07.081Z,1.93
2023-12-23T04:54:34.127Z,2.80
2023-12-23T04:57:01.177Z,3.40
2023-12-23T04:59:29.023Z,2.80
2023-12-23T05:01:56.353Z,2.43
2023-12-23T05:04:23.625Z,1.50
2023-12-23T05:06:50.784Z,1.30
2023-12-23T05:09:18.030Z,1.87
2023-12-23T05:11:45.104Z,2.23
2023-12-23T05:14:12.255Z,1.87
2023-12-23T05:16:39.408Z,1.63
2023-12-23T05:19:06.632Z,1.57
2023-12-23T05:21:33.694Z,1.53
2023-12-23T05:24:00.853Z,1.27
2023-12-23T05:26:28.043Z,1.40
2023-12-23T05:28:55.268Z,2.00
2023-12-23T05:31:22.350Z,1.83
2023-12-23T05:33:53.217Z,1.37
2023-12-23T05:36:20.382Z,1.90
2023-12-23T05:38:47.468Z,2.23
2023-12-23T05:41:14.553Z,1.70
2023-12-23T05:43:41.641Z,1.27
2023-12-23T05:46:09.048Z,1.30
2023-12-23T05:48:36.287Z,2.07
2023-12-23T05:51:03.595Z,1.10
2023-12-23T05:53:30.718Z,1.40
2023-12-23T05:55:57.974Z,1.43
2023-12-23T05:58:25.097Z,1.60
2023-12-23T06:00:52.161Z,1.50
2023-12-23T06:03:19.278Z,1.17
2023-12-23T06:05:46.380Z,1.17
2023-12-23T06:08:13.475Z,1.67
2023-12-23T06:10:50.326Z,0.93
2023-12-23T06:13:24.246Z,1.33
2023-12-23T06:15:51.326Z,1.10
2023-12-23T06:18:18.520Z,1.10
2023-12-23T06:20:45.731Z,0.80
2023-12-23T06:23:13.605Z,0.87
2023-12-23T06:25:40.808Z,0.87
2023-12-23T06:28:07.889Z,0.60
2023-12-23T06:30:35.014Z,1.17
2023-12-23T06:33:02.189Z,0.90
2023-12-23T06:35:29.328Z,0.70
2023-12-23T06:37:56.402Z,0.70
2023-12-23T06:40:23.494Z,0.63
2023-12-23T06:42:50.795Z,0.80
2023-12-23T06:45:18.179Z,0.80
2023-12-23T06:47:45.365Z,0.50
2023-12-23T06:50:12.629Z,0.67
2023-12-23T06:52:39.829Z,0.40
2023-12-23T06:55:07.010Z,0.50
2023-12-23T06:57:35.676Z,0.63
2023-12-23T07:00:04.315Z,0.80
2023-12-23T07:02:31.401Z,0.70
2023-12-23T07:04:58.530Z,0.70
2023-12-23T07:07:25.950Z,0.60
2023-12-23T07:10:01.780Z,0.87
2023-12-23T07:12:32.343Z,1.00
2023-12-23T07:14:59.900Z,1.40
2023-12-23T07:17:38.032Z,1.50
2023-12-23T07:20:09.594Z,1.07
2023-12-23T07:22:36.757Z,1.00
2023-12-23T07:25:04.702Z,1.27
2023-12-23T07:27:32.057Z,1.40
2023-12-23T07:29:59.156Z,1.90
2023-12-23T07:32:26.941Z,2.13
2023-12-23T07:34:54.345Z,1.60
2023-12-23T07:37:21.451Z,2.07
2023-12-23T07:39:48.504Z,1.50
2023-12-23T07:42:15.586Z,1.70
2023-12-23T07:44:42.703Z,2.13
2023-12-23T07:47:13.696Z,1.90
2023-12-23T07:49:40.894Z,2.03
2023-12-23T07:52:10.999Z,1.67
2023-12-23T07:54:38.163Z,2.07
2023-12-23T07:57:05.385Z,1.73
2023-12-23T07:59:32.524Z,1.60
2023-12-23T08:02:00.146Z,1.70
2023-12-23T08:04:27.245Z,1.77
2023-12-23T08:06:54.316Z,1.50
2023-12-23T08:09:22.100Z,1.37
2023-12-23T08:11:49.183Z,1.47
2023-12-23T08:14:16.286Z,1.10
2023-12-23T08:16:43.841Z,2.03
2023-12-23T08:19:11.005Z,1.63
2023-12-23T08:21:38.107Z,1.73
2023-12-23T08:24:05.430Z,1.47
2023-12-23T08:26:32.644Z,1.07
2023-12-23T08:28:59.865Z,1.57
2023-12-23T08:31:27.274Z,1.40
2023-12-23T08:33:54.468Z,1.30
2023-12-23T08:36:21.589Z,1.53
2023-12-23T08:38:49.413Z,1.37
2023-12-23T08:41:16.535Z,1.53
2023-12-23T08:43:43.661Z,1.30
2023-12-23T08:46:10.765Z,1.57
2023-12-23T08:48:38.752Z,1.43
2023-12-23T08:51:06.018Z,1.77
2023-12-23T08:53:33.143Z,1.70
2023-12-23T08:56:00.294Z,1.53
2023-12-23T08:58:27.428Z,1.93
2023-12-23T09:00:54.611Z,1.50
2023-12-23T09:03:21.786Z,1.70
2023-12-23T09:05:49.103Z,1.40
2023-12-23T09:08:16.486Z,2.07
2023-12-23T09:10:43.622Z,1.90
2023-12-23T09:13:10.744Z,1.53
2023-12-23T09:15:39.169Z,2.73
2023-12-23T09:18:06.542Z,1.50
2023-12-23T09:20:33.982Z,2.27
2023-12-23T09:23:01.279Z,1.93
2023-12-23T09:25:28.603Z,3.07
2023-12-23T09:27:55.770Z,2.33
2023-12-23T09:30:22.864Z,1.80
2023-12-23T09:32:50.047Z,2.33
2023-12-23T09:35:17.826Z,1.77
2023-12-23T09:37:46.207Z,1.57
2023-12-23T09:40:14.593Z,2.23
2023-12-23T09:42:42.602Z,1.00
2023-12-23T09:45:09.854Z,1.10
2023-12-23T09:47:37.269Z,1.70
2023-12-23T09:50:04.600Z,1.30
2023-12-23T09:52:32.252Z,2.20
2023-12-23T09:55:01.453Z,1.90
2023-12-23T09:57:29.750Z,3.93
2023-12-23T09:59:57.794Z,1.50
2023-12-23T10:02:24.973Z,3.83
2023-12-23T10:04:52.108Z,2.63
2023-12-23T10:07:19.278Z,2.87
2023-12-23T10:09:47.210Z,2.63
2023-12-23T10:12:14.250Z,1.73
2023-12-23T10:14:42.678Z,2.87
2023-12-23T10:17:09.886Z,2.87
2023-12-23T10:19:37.030Z,1.90
2023-12-23T10:22:05.343Z,3.67
2023-12-23T10:24:32.597Z,2.57
2023-12-23T10:26:59.744Z,2.33
2023-12-23T10:29:26.806Z,2.43
2023-12-23T10:31:54.393Z,1.87
2023-12-23T10:34:22.503Z,1.67
2023-12-23T10:36:49.612Z,2.80
2023-12-23T10:39:24.289Z,2.83
2023-12-23T10:41:53.198Z,1.70
2023-12-23T10:44:20.426Z,1.57
2023-12-23T10:46:47.661Z,1.17
2023-12-23T10:49:14.897Z,1.90
2023-12-23T10:51:42.047Z,2.47
2023-12-23T10:54:12.089Z,2.20
2023-12-23T10:56:39.313Z,1.90
2023-12-23T10:59:06.686Z,2.53
2023-12-23T11:01:34.600Z,1.57
2023-12-23T11:04:01.927Z,1.30
2023-12-23T11:06:32.675Z,2.00
2023-12-23T11:08:59.920Z,2.07
2023-12-23T11:11:27.316Z,1.83
2023-12-23T11:13:54.577Z,1.87
2023-12-23T11:16:21.698Z,2.30
2023-12-23T11:18:48.871Z,1.77
2023-12-23T11:21:19.226Z,0.87
2023-12-23T11:23:46.584Z,0.97
2023-12-23T11:26:32.595Z,0.97
2023-12-23T11:28:59.876Z,0.80
2023-12-23T11:31:27.001Z,1.67
2023-12-23T11:33:54.182Z,1.17
2023-12-23T11:36:21.535Z,1.70
2023-12-23T11:38:51.321Z,1.10
2023-12-23T11:41:18.937Z,2.30
2023-12-23T11:43:46.442Z,1.20
2023-12-23T11:46:14.413Z,1.10
2023-12-23T11:48:41.607Z,1.17
2023-12-23T11:51:08.748Z,1.93
2023-12-23T11:53:35.927Z,2.27
2023-12-23T11:56:03.184Z,1.40
2023-12-23T11:58:30.412Z,1.30
2023-12-23T12:00:57.533Z,1.30
2023-12-23T12:03:25.635Z,1.40
2023-12-23T12:05:57.343Z,1.37
2023-12-23T12:08:24.762Z,1.67
2023-12-23T12:10:52.016Z,1.30
2023-12-23T12:13:19.193Z,2.83
2023-12-23T12:15:46.254Z,1.53
2023-12-23T12:18:13.636Z,2.17
2023-12-23T12:20:40.800Z,1.83
2023-12-23T12:23:07.965Z,2.13
2023-12-23T12:25:35.128Z,1.60
2023-12-23T12:28:02.200Z,3.20
2023-12-23T12:30:29.329Z,2.17
2023-12-23T12:32:56.702Z,1.80
2023-12-23T12:35:24.981Z,1.10
2023-12-23T12:37:52.774Z,1.53
2023-12-23T12:40:20.147Z,0.80
2023-12-23T12:42:52.319Z,1.33
2023-12-23T12:45:19.823Z,1.27
2023-12-23T12:47:49.337Z,1.87
2023-12-23T12:50:19.314Z,0.87
2023-12-23T12:52:48.406Z,1.50
2023-12-23T12:55:15.767Z,1.27
2023-12-23T12:57:42.851Z,1.13
2023-12-23T13:00:10.428Z,1.90
2023-12-23T13:02:37.606Z,0.77
2023-12-23T13:05:05.073Z,0.90
2023-12-23T13:07:32.167Z,2.00
2023-12-23T13:09:59.276Z,0.80
2023-12-23T13:12:26.341Z,0.97
2023-12-23T13:14:53.384Z,1.10
2023-12-23T13:17:20.567Z,2.03
2023-12-23T13:19:47.873Z,2.17
2023-12-23T13:22:15.187Z,0.80
2023-12-23T13:24:42.251Z,1.83
2023-12-23T13:27:09.325Z,1.10
2023-12-23T13:29:36.864Z,1.73
2023-12-23T13:32:04.151Z,1.57
2023-12-23T13:34:32.009Z,0.80
2023-12-23T13:37:00.087Z,1.80
2023-12-23T13:39:27.185Z,1.03
2023-12-23T13:41:54.313Z,1.00
2023-12-23T13:44:21.446Z,2.03
2023-12-23T13:46:49.791Z,1.10
2023-12-23T13:49:17.245Z,0.90
2023-12-23T13:51:44.462Z,1.27
2023-12-23T13:54:11.538Z,1.03
2023-12-23T13:56:38.600Z,0.80
2023-12-23T13:59:05.683Z,1.80
2023-12-23T14:01:32.748Z,1.00
2023-12-23T14:03:59.816Z,2.40
2023-12-23T14:06:26.947Z,0.80
2023-12-23T14:08:54.202Z,1.03
2023-12-23T14:11:21.310Z,1.40
2023-12-23T14:13:48.397Z,3.63
2023-12-23T14:16:18.759Z,0.77
2023-12-23T14:18:46.734Z,1.60
2023-12-23T14:21:13.848Z,1.40
2023-12-23T14:23:40.967Z,1.00
2023-12-23T14:26:08.407Z,1.20
2023-12-23T14:28:36.232Z,0.97
2023-12-23T14:31:03.798Z,0.90
2023-12-23T14:33:32.590Z,0.90
2023-12-23T14:36:00.377Z,1.27
2023-12-23T14:38:28.147Z,1.00
2023-12-23T14:40:55.369Z,1.07
2023-12-23T14:43:22.565Z,1.07
2023-12-23T14:45:49.662Z,1.13
2023-12-23T14:48:16.930Z,2.80
2023-12-23T14:50:44.179Z,1.00
2023-12-23T14:53:11.268Z,1.40
2023-12-23T14:55:41.609Z,0.80
2023-12-23T14:58:09.110Z,2.30
2023-12-23T15:00:36.241Z,1.07
2023-12-23T15:03:03.411Z,1.17
2023-12-23T15:05:30.562Z,1.80
2023-12-23T15:07:57.694Z,1.40
2023-12-23T15:10:24.817Z,1.83
2023-12-23T15:12:52.191Z,0.70
2023-12-23T15:15:19.544Z,1.40
2023-12-23T15:17:46.986Z,1.40
2023-12-23T15:20:14.587Z,1.00
2023-12-23T15:22:41.715Z,1.50
2023-12-23T15:25:08.832Z,1.23
2023-12-23T15:27:35.977Z,1.80
2023-12-23T15:30:05.192Z,2.90
2023-12-23T15:32:32.566Z,1.10
2023-12-23T15:34:59.721Z,1.77
2023-12-23T15:37:27.951Z,1.37
2023-12-23T15:39:55.103Z,1.00
2023-12-23T15:42:22.181Z,1.10
2023-12-23T15:44:49.264Z,0.80
2023-12-23T15:47:16.764Z,1.53
2023-12-23T15:49:43.832Z,1.13
2023-12-23T15:52:10.936Z,1.83
2023-12-23T15:54:37.983Z,1.47
2023-12-23T15:57:06.369Z,0.80
2023-12-23T15:59:33.510Z,1.13
2023-12-23T16:02:03.860Z,1.10
2023-12-23T16:04:32.537Z,1.37
2023-12-23T16:06:59.795Z,0.90
2023-12-23T16:09:27.044Z,1.67
2023-12-23T16:11:54.262Z,0.90
2023-12-23T16:14:21.528Z,1.70
2023-12-23T16:16:48.658Z,0.97
2023-12-23T16:19:15.849Z,1.20
2023-12-23T16:21:43.033Z,1.37
2023-12-23T16:24:10.097Z,0.90
2023-12-23T16:26:37.267Z,1.27
2023-12-23T16:29:04.425Z,1.40
2023-12-23T16:31:31.767Z,1.00
2023-12-23T16:33:58.874Z,1.50
2023-12-23T16:36:25.947Z,1.47
2023-12-23T16:38:53.072Z,1.50
2023-12-23T16:41:20.227Z,1.10
2023-12-23T16:43:47.373Z,1.10
2023-12-23T16:46:14.567Z,1.07
2023-12-23T16:48:41.746Z,1.23
2023-12-23T16:51:08.897Z,1.20
2023-12-23T16:53:37.039Z,1.17
2023-12-23T16:56:05.571Z,1.00
2023-12-23T16:58:33.704Z,0.90
2023-12-23T17:01:00.840Z,1.20
2023-12-23T17:03:27.962Z,1.00
2023-12-23T17:05:55.357Z,1.20
2023-12-23T17:08:22.603Z,0.90
2023-12-23T17:10:49.828Z,1.67
2023-12-23T17:13:16.976Z,1.17
2023-12-23T17:15:44.069Z,1.47
2023-12-23T17:18:11.211Z,0.90
2023-12-23T17:20:38.455Z,1.17
2023-12-23T17:23:07.699Z,0.90
2023-12-23T17:25:34.885Z,1.20
2023-12-23T17:28:01.954Z,0.80
2023-12-23T17:30:29.042Z,1.23
2023-12-23T17:32:56.373Z,0.70
2023-12-23T17:35:26.309Z,2.50
2023-12-23T17:37:53.437Z,1.03
2023-12-23T17:40:20.517Z,1.67
2023-12-23T17:42:47.628Z,1.43
2023-12-23T17:45:14.771Z,1.23
2023-12-23T17:47:42.801Z,1.27
2023-12-23T17:50:10.915Z,1.30
2023-12-23T17:52:39.547Z,1.00
2023-12-23T17:55:06.743Z,1.10
2023-12-23T17:57:33.839Z,1.20
2023-12-23T18:00:00.910Z,1.33
2023-12-23T18:02:29.795Z,1.03
2023-12-23T18:04:57.699Z,1.30
2023-12-23T18:07:24.804Z,1.33
2023-12-23T18:09:52.350Z,1.37
2023-12-23T18:12:19.421Z,1.10
2023-12-23T18:14:46.494Z,1.07
2023-12-23T18:17:13.652Z,1.20
2023-12-23T18:19:40.784Z,0.90
2023-12-23T18:22:07.852Z,1.00
2023-12-23T18:24:34.926Z,1.00
2023-12-23T18:27:02.013Z,0.77
2023-12-23T18:29:29.126Z,1.20
2023-12-23T18:31:57.413Z,0.93
2023-12-23T18:34:24.945Z,1.27
2023-12-23T18:36:52.073Z,0.80
2023-12-23T18:39:20.043Z,1.10
2023-12-23T18:41:47.264Z,1.00
2023-12-23T18:44:14.354Z,1.13
2023-12-23T18:46:41.412Z,0.90
2023-12-23T18:49:08.732Z,0.80
2023-12-23T18:51:37.120Z,0.90
2023-12-23T18:54:04.280Z,0.70
2023-12-23T18:56:31.389Z,0.80
2023-12-23T18:58:58.599Z,0.70
2023-12-23T19:01:25.721Z,1.00
2023-12-23T19:03:52.823Z,1.37
2023-12-23T19:06:19.941Z,1.20
2023-12-23T19:08:46.998Z,0.67
2023-12-23T19:11:14.090Z,1.00
2023-12-23T19:13:41.333Z,0.80
2023-12-23T19:16:09.831Z,0.90
2023-12-23T19:18:37.081Z,0.90
2023-12-23T19:21:04.226Z,0.90
2023-12-23T19:23:32.929Z,1.10
2023-12-23T19:26:00.159Z,0.80
2023-12-23T19:28:27.243Z,0.83
2023-12-23T19:30:58.043Z,1.20
2023-12-23T19:33:26.041Z,0.90
2023-12-23T19:35:53.541Z,1.27
2023-12-23T19:38:21.650Z,1.03
2023-12-23T19:40:48.764Z,1.20
2023-12-23T19:43:15.874Z,0.60
2023-12-23T19:45:44.508Z,1.17
2023-12-23T19:48:13.306Z,0.90
2023-12-23T19:50:40.690Z,1.13
2023-12-23T19:53:07.985Z,1.00
2023-12-23T19:55:35.140Z,0.70
2023-12-23T19:58:02.218Z,0.80
2023-12-23T20:00:29.265Z,0.80
2023-12-23T20:02:56.862Z,1.33
2023-12-23T20:05:24.082Z,1.23
2023-12-23T20:07:51.328Z,1.00
2023-12-23T20:10:19.654Z,0.93
2023-12-23T20:12:46.827Z,1.30
2023-12-23T20:15:13.977Z,0.90
2023-12-23T20:17:41.512Z,1.33
2023-12-23T20:20:09.132Z,1.77
2023-12-23T20:22:36.454Z,0.93
2023-12-23T20:25:04.521Z,1.03
2023-12-23T20:27:31.600Z,0.90
2023-12-23T20:30:00.040Z,1.20
2023-12-23T20:32:28.540Z,1.10
2023-12-23T20:34:55.747Z,1.93
2023-12-23T20:37:22.911Z,1.10
2023-12-23T20:39:49.954Z,0.53
2023-12-23T20:42:17.047Z,0.70
2023-12-23T20:44:44.319Z,0.67
2023-12-23T20:47:11.472Z,0.77
2023-12-23T20:49:39.403Z,1.20
2023-12-23T20:52:07.049Z,0.70
2023-12-23T20:54:34.769Z,0.80
2023-12-23T20:57:03.218Z,0.70
2023-12-23T20:59:30.408Z,0.67
2023-12-23T21:01:57.519Z,0.87
2023-12-23T21:04:24.752Z,0.50
2023-12-23T21:06:53.114Z,0.50
2023-12-23T21:09:20.253Z,0.60
2023-12-23T21:11:47.316Z,0.80
2023-12-23T21:14:14.600Z,0.57
2023-12-23T21:16:41.715Z,0.50
2023-12-23T21:19:08.848Z,0.50
2023-12-23T21:21:35.929Z,0.50
2023-12-23T21:24:04.965Z,0.60
2023-12-23T21:26:32.110Z,0.60
2023-12-23T21:28:59.327Z,0.63
2023-12-23T21:31:26.438Z,0.53
2023-12-23T21:33:53.663Z,1.00
2023-12-23T21:36:20.780Z,0.83
2023-12-23T21:38:47.880Z,0.80
2023-12-23T21:41:14.985Z,1.03
2023-12-23T21:43:42.053Z,0.80
2023-12-23T21:46:09.120Z,1.07
2023-12-23T21:48:36.820Z,2.17
2023-12-23T21:51:04.503Z,0.63
2023-12-23T21:53:31.664Z,2.03
2023-12-23T21:55:58.825Z,0.87
2023-12-23T21:58:25.950Z,0.80
2023-12-23T22:00:53.032Z,1.10
2023-12-23T22:03:20.138Z,0.70
2023-12-23T22:05:47.526Z,0.80
2023-12-23T22:08:14.756Z,0.70
2023-12-23T22:10:41.857Z,0.80
2023-12-23T22:13:08.902Z,1.07
2023-12-23T22:15:36.005Z,0.93
2023-12-23T22:18:03.214Z,1.00
2023-12-23T22:20:30.396Z,0.73
2023-12-23T22:22:57.545Z,0.60
2023-12-23T22:25:25.537Z,0.73
2023-12-23T22:27:52.808Z,0.60
2023-12-23T22:30:19.912Z,0.60
2023-12-23T22:32:47.222Z,1.67
2023-12-23T22:35:14.506Z,0.40
2023-12-23T22:37:41.597Z,0.80
2023-12-23T22:40:08.899Z,0.50
2023-12-23T22:42:35.997Z,0.60
2023-12-23T22:45:03.164Z,0.50
2023-12-23T22:47:30.884Z,0.53
2023-12-23T22:49:58.220Z,0.50
2023-12-23T22:52:25.332Z,0.60
2023-12-23T22:54:52.371Z,0.50
2023-12-23T22:57:19.499Z,1.00
2023-12-23T22:59:46.594Z,0.87
2023-12-23T23:02:13.810Z,0.77
2023-12-23T23:04:41.432Z,0.80
2023-12-23T23:07:08.933Z,0.30
2023-12-23T23:09:36.671Z,0.37
2023-12-23T23:12:03.924Z,0.33
2023-12-23T23:14:31.040Z,0.40
2023-12-23T23:16:58.146Z,0.40
2023-12-23T23:19:25.432Z,0.33
2023-12-23T23:21:52.589Z,0.33
2023-12-23T23:24:19.657Z,0.30
2023-12-23T23:26:46.796Z,0.20
2023-12-23T23:29:13.883Z,0.20
2023-12-23T23:31:40.964Z,0.20
2023-12-23T23:34:08.093Z,0.30
2023-12-23T23:36:35.168Z,0.10
2023-12-23T23:39:02.308Z,0.10
2023-12-23T23:41:29.467Z,0.40
2023-12-23T23:43:56.595Z,0.10
2023-12-23T23:46:23.658Z,0.10
2023-12-23T23:48:50.725Z,0.23
2023-12-23T23:51:21.207Z,0.20
2023-12-23T23:53:48.594Z,0.20
2023-12-23T23:56:19.970Z,0.20
2023-12-23T23:58:48.326Z,0.20
